createdAt,value
2023-04-19T00:02:14.036Z,48.10
2023-04-19T00:46:26.472Z,48.20
2023-04-19T00:48:54.109Z,49.40
2023-04-19T00:51:20.851Z,49.50
2023-04-19T00:53:48.367Z,49.50
2023-04-19T00:56:16.751Z,49.50
2023-04-19T00:58:43.449Z,49.50
2023-04-19T01:01:10.159Z,49.50
2023-04-19T01:03:37.034Z,49.70
2023-04-19T01:06:04.081Z,49.80
2023-04-19T01:08:30.798Z,49.80
2023-04-19T01:10:57.693Z,49.90
2023-04-19T01:13:25.010Z,50.00
2023-04-19T01:15:51.816Z,50.10
2023-04-19T01:18:19.446Z,50.20
2023-04-19T01:20:46.237Z,50.40
2023-04-19T01:23:12.980Z,50.40
2023-04-19T01:25:40.800Z,50.50
2023-04-19T01:28:07.456Z,50.60
2023-04-19T01:30:36.400Z,50.70
2023-04-19T01:33:03.339Z,50.90
2023-04-19T01:35:30.099Z,50.90
2023-04-19T01:37:56.817Z,51.00
2023-04-19T01:40:26.711Z,51.10
2023-04-19T01:42:53.774Z,51.20
2023-04-19T01:45:20.759Z,51.20
2023-04-19T01:47:47.599Z,51.40
2023-04-19T01:50:14.272Z,51.50
2023-04-19T01:52:40.910Z,51.60
2023-04-19T01:55:09.003Z,51.70
2023-04-19T01:57:35.762Z,51.80
2023-04-19T02:00:02.697Z,51.90
2023-04-19T02:02:29.622Z,52.00
2023-04-19T02:04:57.612Z,52.10
2023-04-19T02:07:24.280Z,52.30
2023-04-19T02:09:51.447Z,52.30
2023-04-19T02:12:18.240Z,52.30
2023-04-19T02:14:44.904Z,52.30
2023-04-19T02:17:12.312Z,52.40
2023-04-19T02:19:39.030Z,52.50
2023-04-19T02:22:06.769Z,52.50
2023-04-19T02:24:33.437Z,52.70
2023-04-19T02:27:00.140Z,52.70
2023-04-19T02:29:26.785Z,52.80
2023-04-19T02:31:53.491Z,52.80
2023-04-19T02:34:20.433Z,52.80
2023-04-19T02:36:47.096Z,52.90
2023-04-19T02:39:13.762Z,53.00
2023-04-19T02:41:41.785Z,53.00
2023-04-19T02:44:08.661Z,53.00
2023-04-19T02:46:35.523Z,52.90
2023-04-19T02:49:02.444Z,53.00
2023-04-19T02:51:30.761Z,53.10
2023-04-19T02:53:57.502Z,53.10
2023-04-19T02:56:25.236Z,53.10
2023-04-19T02:58:54.412Z,53.10
2023-04-19T03:01:21.313Z,53.10
2023-04-19T03:03:48.202Z,53.10
2023-04-19T03:06:15.538Z,53.20
2023-04-19T03:08:42.174Z,53.20
2023-04-19T03:11:08.871Z,53.10
2023-04-19T03:13:35.556Z,53.20
2023-04-19T03:16:02.369Z,53.20
2023-04-19T03:18:29.744Z,53.20
2023-04-19T03:20:56.446Z,53.20
2023-04-19T03:23:23.216Z,53.20
2023-04-19T03:25:50.156Z,53.20
2023-04-19T03:28:16.942Z,53.20
2023-04-19T03:30:43.603Z,53.20
2023-04-19T03:33:10.510Z,53.40
2023-04-19T03:35:37.196Z,53.30
2023-04-19T03:38:03.951Z,53.20
2023-04-19T03:40:32.851Z,53.30
2023-04-19T03:42:59.587Z,53.40
2023-04-19T03:45:27.167Z,53.30
2023-04-19T03:47:53.856Z,53.10
2023-04-19T03:50:24.808Z,53.00
2023-04-19T03:52:51.642Z,53.00
2023-04-19T03:55:18.452Z,52.80
2023-04-19T03:57:45.184Z,52.80
2023-04-19T04:00:12.872Z,52.80
2023-04-19T04:02:39.914Z,52.70
2023-04-19T04:05:07.726Z,52.80
2023-04-19T04:07:37.310Z,52.70
2023-04-19T04:10:04.700Z,52.60
2023-04-19T04:12:31.359Z,52.40
2023-04-19T04:14:58.067Z,52.30
2023-04-19T04:17:24.847Z,52.10
2023-04-19T04:19:51.623Z,52.00
2023-04-19T04:22:18.476Z,52.00
2023-04-19T04:24:45.188Z,52.00
2023-04-19T04:27:11.938Z,51.90
2023-04-19T04:29:39.648Z,51.80
2023-04-19T04:32:10.866Z,51.80
2023-04-19T04:34:39.646Z,51.80
2023-04-19T04:37:08.719Z,51.70
2023-04-19T04:39:39.217Z,51.80
2023-04-19T04:44:36.588Z,51.60
2023-04-19T04:47:03.393Z,51.60
2023-04-19T04:49:30.999Z,51.70
2023-04-19T04:51:57.757Z,51.70
2023-04-19T04:54:24.626Z,51.60
2023-04-19T04:56:51.457Z,51.60
2023-04-19T04:59:19.142Z,51.60
2023-04-19T05:01:46.041Z,51.70
2023-04-19T05:04:12.925Z,51.50
2023-04-19T05:06:41.203Z,51.50
2023-04-19T05:09:08.429Z,51.60
2023-04-19T05:11:35.118Z,51.50
2023-04-19T05:14:02.483Z,51.40
2023-04-19T05:16:29.610Z,51.40
2023-04-19T05:18:56.574Z,51.40
2023-04-19T05:21:23.336Z,51.50
2023-04-19T05:23:53.533Z,51.60
2023-04-19T05:26:20.589Z,51.70
2023-04-19T05:28:47.291Z,51.60
2023-04-19T05:31:14.208Z,51.60
2023-04-19T05:33:40.961Z,51.50
2023-04-19T05:36:08.135Z,51.60
2023-04-19T05:38:34.841Z,51.40
2023-04-19T05:41:02.717Z,51.30
2023-04-19T05:43:29.516Z,51.30
2023-04-19T05:45:56.308Z,51.30
2023-04-19T05:48:23.117Z,51.20
2023-04-19T05:50:52.461Z,51.30
2023-04-19T05:53:19.177Z,51.20
2023-04-19T05:55:48.048Z,51.10
2023-04-19T05:58:14.831Z,51.00
2023-04-19T06:00:41.593Z,50.70
2023-04-19T06:05:36.208Z,50.50
2023-04-19T06:08:03.395Z,50.20
2023-04-19T06:10:37.512Z,50.00
2023-04-19T06:13:17.137Z,49.90
2023-04-19T06:15:43.929Z,49.70
2023-04-19T06:18:11.139Z,49.40
2023-04-19T06:20:46.984Z,49.60
2023-04-19T06:23:14.810Z,49.70
2023-04-19T06:25:41.790Z,49.90
2023-04-19T06:28:08.586Z,50.10
2023-04-19T06:30:35.578Z,50.40
2023-04-19T06:33:02.557Z,50.40
2023-04-19T06:35:29.365Z,50.20
2023-04-19T06:37:56.060Z,50.10
2023-04-19T06:40:23.025Z,49.80
2023-04-19T06:42:49.856Z,49.50
2023-04-19T06:45:16.764Z,49.10
2023-04-19T06:47:43.562Z,49.00
2023-04-19T06:50:11.186Z,48.40
2023-04-19T06:52:38.822Z,48.50
2023-04-19T06:55:09.394Z,47.90
2023-04-19T06:57:36.098Z,46.20
2023-04-19T07:00:06.484Z,45.20
2023-04-19T07:02:33.366Z,44.60
2023-04-19T07:05:00.886Z,44.00
2023-04-19T07:07:27.786Z,43.40
2023-04-19T07:09:54.466Z,43.00
2023-04-19T07:12:21.228Z,42.10
2023-04-19T07:14:47.874Z,41.50
2023-04-19T07:17:14.582Z,41.70
2023-04-19T07:19:42.383Z,40.60
2023-04-19T07:22:09.106Z,40.50
2023-04-19T07:24:35.760Z,40.30
2023-04-19T07:27:02.633Z,39.80
2023-04-19T07:29:29.736Z,40.10
2023-04-19T07:31:56.625Z,40.20
2023-04-19T07:34:23.403Z,40.00
2023-04-19T07:36:50.206Z,40.50
2023-04-19T07:39:16.925Z,39.60
2023-04-19T07:41:44.946Z,39.30
2023-04-19T07:44:13.207Z,39.40
2023-04-19T07:46:43.895Z,39.70
2023-04-19T07:49:10.719Z,40.30
2023-04-19T07:51:37.367Z,39.50
2023-04-19T07:54:04.123Z,39.00
2023-04-19T07:56:30.883Z,39.00
2023-04-19T07:59:07.541Z,38.50
2023-04-19T08:01:37.045Z,39.00
2023-04-19T08:04:04.417Z,39.90
2023-04-19T08:06:32.473Z,39.10
2023-04-19T08:08:59.276Z,39.30
2023-04-19T08:11:26.051Z,39.20
2023-04-19T08:17:05.817Z,38.10
2023-04-19T08:19:10.048Z,38.10
2023-04-19T08:21:41.240Z,37.30
2023-04-19T08:24:08.889Z,38.10
2023-04-19T08:26:35.626Z,38.70
2023-04-19T08:29:02.437Z,36.80
2023-04-19T08:31:29.442Z,38.20
2023-04-19T08:33:57.011Z,36.80
2023-04-19T08:36:35.902Z,38.20
2023-04-19T08:39:12.537Z,37.10
2023-04-19T08:42:06.687Z,39.20
2023-04-19T08:44:50.975Z,39.00
2023-04-19T08:47:30.820Z,38.40
2023-04-19T08:50:23.917Z,37.40
2023-04-19T08:53:00.613Z,36.30
2023-04-19T08:55:30.184Z,37.00
2023-04-19T08:57:57.717Z,37.70
2023-04-19T09:10:20.284Z,37.70
2023-04-19T09:13:19.355Z,36.00
2023-04-19T09:15:46.045Z,39.30
2023-04-19T09:18:14.104Z,36.00
2023-04-19T09:20:43.845Z,35.80
2023-04-19T09:23:13.492Z,35.00
2023-04-19T09:28:20.447Z,36.20
2023-04-19T09:31:02.385Z,35.10
2023-04-19T09:33:41.677Z,35.70
2023-04-19T09:36:08.890Z,35.40
2023-04-19T09:38:48.206Z,34.80
2023-04-19T09:41:15.034Z,34.50
2023-04-19T09:46:36.261Z,34.70
2023-04-19T09:49:27.971Z,44.30
2023-04-19T09:52:05.439Z,37.40
2023-04-19T09:54:32.714Z,35.50
2023-04-19T09:57:01.769Z,36.10
2023-04-19T09:59:28.705Z,35.50
2023-04-19T10:01:58.792Z,34.50
2023-04-19T10:04:38.265Z,34.80
2023-04-19T10:14:48.045Z,34.70
2023-04-19T10:17:16.190Z,34.50
2023-04-19T10:19:44.262Z,35.50
2023-04-19T10:22:13.134Z,35.50
2023-04-19T10:25:03.096Z,35.10
2023-04-19T10:27:29.728Z,34.80
2023-04-19T10:30:01.243Z,34.30
2023-04-19T10:32:38.001Z,33.20
2023-04-19T10:35:09.489Z,33.30
2023-04-19T10:37:41.743Z,32.40
2023-04-19T10:40:09.775Z,32.60
2023-04-19T10:43:10.908Z,34.10
2023-04-19T10:45:37.939Z,33.70
2023-04-19T10:48:04.895Z,32.70
2023-04-19T10:50:57.965Z,31.90
2023-04-19T10:53:44.562Z,33.00
2023-04-19T10:56:11.395Z,31.30
2023-04-19T10:59:03.078Z,30.90
2023-04-19T11:01:34.791Z,31.20
2023-04-19T11:04:01.658Z,31.60
2023-04-19T11:06:28.686Z,31.40
2023-04-19T11:08:57.351Z,31.40
2023-04-19T11:11:25.588Z,31.30
2023-04-19T11:13:55.381Z,35.70
2023-04-19T11:16:31.164Z,32.50
2023-04-19T11:19:08.813Z,32.70
2023-04-19T11:21:40.906Z,32.80
2023-04-19T11:36:32.570Z,31.60
2023-04-19T11:38:59.410Z,32.50
2023-04-19T11:41:26.164Z,30.40
2023-04-19T11:43:53.159Z,30.80
2023-04-19T11:46:20.009Z,30.10
2023-04-19T11:48:54.170Z,31.00
2023-04-19T11:51:21.124Z,30.80
2023-04-19T11:53:47.851Z,28.90
2023-04-19T11:56:15.555Z,30.10
2023-04-19T11:58:45.441Z,30.00
2023-04-19T12:01:22.177Z,29.20
2023-04-19T12:03:52.242Z,28.60
2023-04-19T12:06:27.055Z,28.10
2023-04-19T12:11:26.918Z,29.20
2023-04-19T12:14:14.267Z,28.80
2023-04-19T12:16:41.637Z,29.20
2023-04-19T12:19:17.424Z,28.90
2023-04-19T12:21:45.972Z,28.10
2023-04-19T12:24:15.896Z,29.90
2023-04-19T12:34:18.175Z,29.90
2023-04-19T12:36:44.923Z,29.20
2023-04-19T12:39:11.984Z,29.00
2023-04-19T12:41:38.653Z,28.70
2023-04-19T12:44:06.468Z,29.40
2023-04-19T12:46:33.238Z,29.40
2023-04-19T12:48:59.952Z,29.30
2023-04-19T12:51:27.913Z,30.00
2023-04-19T12:53:54.741Z,28.10
2023-04-19T13:21:04.561Z,28.80
2023-04-19T13:23:32.823Z,30.00
2023-04-19T13:25:59.618Z,29.90
2023-04-19T13:28:26.282Z,29.40
2023-04-19T13:43:09.774Z,29.20
2023-04-19T13:45:36.433Z,28.30
2023-04-19T13:48:03.316Z,29.20
2023-04-19T14:52:06.214Z,28.00
2023-04-19T15:09:18.711Z,27.30
2023-04-19T15:11:45.681Z,26.70
2023-04-19T15:14:12.518Z,26.90
2023-04-19T15:16:39.396Z,27.80
2023-04-19T15:19:07.432Z,27.60
2023-04-19T15:21:34.580Z,28.10
2023-04-19T15:24:01.562Z,28.00
2023-04-19T15:26:28.486Z,28.80
2023-04-19T15:28:57.666Z,28.60
2023-04-19T15:31:25.041Z,29.10
2023-04-19T15:33:52.079Z,28.60
2023-04-19T15:36:19.007Z,28.90
2023-04-19T15:38:45.841Z,29.00
2023-04-19T15:41:12.547Z,29.00
2023-04-19T15:43:39.361Z,28.90
2023-04-19T15:46:06.216Z,29.20
2023-04-19T15:48:33.009Z,29.70
2023-04-19T15:51:01.303Z,29.50
2023-04-19T15:53:29.051Z,29.50
2023-04-19T15:55:57.028Z,29.50
2023-04-19T15:58:24.167Z,29.70
2023-04-19T16:00:51.078Z,30.60
2023-04-19T16:03:17.943Z,30.10
2023-04-19T16:05:44.706Z,29.90
2023-04-19T16:08:19.092Z,30.00
2023-04-19T16:10:46.765Z,29.70
2023-04-19T16:13:14.693Z,29.60
2023-04-19T16:15:44.994Z,29.70
2023-04-19T16:18:13.112Z,29.70
2023-04-19T16:20:40.494Z,30.10
2023-04-19T16:23:07.421Z,29.90
2023-04-19T16:25:34.585Z,30.50
2023-04-19T16:28:01.478Z,30.00
2023-04-19T16:30:28.497Z,30.00
2023-04-19T16:32:56.250Z,30.60
2023-04-19T16:35:25.197Z,30.00
2023-04-19T16:37:54.035Z,30.50
2023-04-19T16:40:22.303Z,30.10
2023-04-19T16:42:49.205Z,30.00
2023-04-19T16:45:19.657Z,30.10
2023-04-19T16:47:46.622Z,30.00
2023-04-19T16:50:14.204Z,30.10
2023-04-19T16:52:41.305Z,30.00
2023-04-19T16:55:08.452Z,30.00
2023-04-19T16:57:36.588Z,30.10
2023-04-19T17:00:05.773Z,29.60
2023-04-19T17:02:33.677Z,30.00
2023-04-19T17:05:01.945Z,29.90
2023-04-19T17:07:28.934Z,29.80
2023-04-19T17:09:55.957Z,29.80
2023-04-19T17:12:22.774Z,29.70
2023-04-19T17:14:49.738Z,29.90
2023-04-19T17:17:24.506Z,30.00
2023-04-19T17:19:51.671Z,30.10
2023-04-19T17:22:18.393Z,31.10
2023-04-19T17:24:45.197Z,30.30
2023-04-19T17:27:12.028Z,30.00
2023-04-19T17:29:38.866Z,29.90
2023-04-19T17:32:06.564Z,29.70
2023-04-19T17:34:35.409Z,29.70
2023-04-19T17:37:03.329Z,29.80
2023-04-19T17:39:32.373Z,29.80
2023-04-19T17:41:59.042Z,29.80
2023-04-19T17:44:26.978Z,30.10
2023-04-19T17:46:54.069Z,30.00
2023-04-19T17:49:21.887Z,30.10
2023-04-19T17:51:48.956Z,30.00
2023-04-19T17:54:16.357Z,30.30
2023-04-19T17:56:43.477Z,30.30
2023-04-19T17:59:10.251Z,30.10
2023-04-19T18:01:37.122Z,30.10
2023-04-19T18:04:04.703Z,30.20
2023-04-19T18:06:31.816Z,30.00
2023-04-19T18:08:59.035Z,30.10
2023-04-19T18:11:28.165Z,30.50
2023-04-19T18:13:55.457Z,30.40
2023-04-19T18:16:22.191Z,30.80
2023-04-19T18:18:48.916Z,31.10
2023-04-19T18:21:16.072Z,31.80
2023-04-19T18:23:43.922Z,31.90
2023-04-19T18:26:10.844Z,32.00
2023-04-19T18:28:37.692Z,32.40
2023-04-19T18:31:05.582Z,32.40
2023-04-19T18:33:32.305Z,32.40
2023-04-19T18:35:59.204Z,32.90
2023-04-19T18:38:26.052Z,33.30
2023-04-19T18:40:52.781Z,33.50
2023-04-19T18:43:19.466Z,33.70
2023-04-19T18:45:53.481Z,33.90
2023-04-19T18:48:20.463Z,33.70
2023-04-19T18:50:47.337Z,33.70
2023-04-19T18:53:14.252Z,33.90
2023-04-19T18:55:41.278Z,33.60
2023-04-19T18:58:08.884Z,33.60
2023-04-19T19:00:35.522Z,33.70
2023-04-19T19:03:03.928Z,33.70
2023-04-19T19:05:32.154Z,34.40
2023-04-19T19:08:00.375Z,34.10
2023-04-19T19:13:01.046Z,34.20
2023-04-19T19:15:27.819Z,34.20
2023-04-19T19:17:54.602Z,34.30
2023-04-19T19:20:21.563Z,34.30
2023-04-19T19:22:48.937Z,34.60
2023-04-19T19:25:15.724Z,34.50
2023-04-19T19:27:58.385Z,34.20
2023-04-19T19:30:33.547Z,34.30
2023-04-19T19:33:01.116Z,34.40
2023-04-19T19:35:28.111Z,34.40
2023-04-19T19:37:54.814Z,34.50
2023-04-19T19:40:23.105Z,34.40
2023-04-19T19:42:50.037Z,34.60
2023-04-19T19:45:18.908Z,34.50
2023-04-19T19:47:49.032Z,34.80
2023-04-19T20:00:36.683Z,34.70
2023-04-19T20:03:01.497Z,34.80
2023-04-19T20:05:28.931Z,35.00
2023-04-19T20:08:10.072Z,35.00
2023-04-19T20:10:37.941Z,35.00
2023-04-19T20:13:06.612Z,35.10
2023-04-19T20:15:35.782Z,34.60
2023-04-19T20:18:03.526Z,34.10
2023-04-19T20:20:30.374Z,33.50
2023-04-19T20:22:57.593Z,32.60
2023-04-19T20:25:24.511Z,31.30
2023-04-19T20:27:51.222Z,30.00
2023-04-19T20:30:17.966Z,29.50
2023-04-19T20:32:44.827Z,28.80
2023-04-19T20:35:12.271Z,28.40
2023-04-19T20:37:40.104Z,28.70
2023-04-19T20:40:08.576Z,28.10
2023-04-19T20:42:36.391Z,27.60
2023-04-19T20:47:32.089Z,27.00
2023-04-19T20:49:58.887Z,26.80
2023-04-19T20:52:25.578Z,26.80
2023-04-19T20:54:52.294Z,26.30
2023-04-19T20:57:18.961Z,26.40
2023-04-19T20:59:47.156Z,26.20
2023-04-19T21:02:13.948Z,26.00
2023-04-19T21:04:42.280Z,26.40
2023-04-19T21:07:09.902Z,26.20
2023-04-19T21:09:37.072Z,26.60
2023-04-19T21:12:04.299Z,26.50
2023-04-19T21:14:33.407Z,26.40
2023-04-19T21:17:03.847Z,26.90
2023-04-19T21:19:30.748Z,26.80
2023-04-19T21:21:58.921Z,26.40
2023-04-19T21:24:25.627Z,26.60
2023-04-19T21:26:52.421Z,26.00
2023-04-19T21:29:20.462Z,25.80
2023-04-19T21:36:42.255Z,25.90
2023-04-19T21:41:37.450Z,26.40
2023-04-19T21:44:04.404Z,26.10
2023-04-19T21:46:31.213Z,26.40
2023-04-19T21:48:58.089Z,25.80
2023-04-19T21:51:24.809Z,26.00
2023-04-19T21:53:51.478Z,25.80
2023-04-19T21:56:20.277Z,25.80
2023-04-19T21:58:47.314Z,25.90
2023-04-19T22:01:14.043Z,25.90
2023-04-19T22:03:40.889Z,26.00
2023-04-19T22:06:08.499Z,25.90
2023-04-19T22:08:35.241Z,25.90
2023-04-19T22:11:02.792Z,25.90
2023-04-19T22:13:30.112Z,25.80
2023-04-19T22:15:57.275Z,26.00
2023-04-19T22:18:24.246Z,26.00
2023-04-19T22:20:52.180Z,25.90
2023-04-19T22:23:19.179Z,26.00
2023-04-19T22:25:46.089Z,26.00
2023-04-19T22:28:12.853Z,26.10
2023-04-19T22:30:39.649Z,26.50
2023-04-19T22:33:06.611Z,26.40
2023-04-19T22:35:33.491Z,26.60
2023-04-19T22:38:00.177Z,26.50
2023-04-19T22:40:26.950Z,26.60
2023-04-19T22:42:53.759Z,26.60
2023-04-19T22:45:20.490Z,26.80
2023-04-19T22:47:47.227Z,27.00
2023-04-19T22:52:41.498Z,27.00
2023-04-19T22:55:08.732Z,27.20
2023-04-19T22:57:35.564Z,27.40
2023-04-19T23:00:04.301Z,27.50
2023-04-19T23:02:31.173Z,27.50
2023-04-19T23:04:58.805Z,27.80
2023-04-19T23:07:26.137Z,27.70
2023-04-19T23:09:54.770Z,27.70
2023-04-19T23:12:23.994Z,27.80
2023-04-19T23:14:50.870Z,27.90
2023-04-19T23:17:17.986Z,28.00
2023-04-19T23:19:44.743Z,28.10
2023-04-19T23:22:11.398Z,28.20
2023-04-19T23:24:38.101Z,28.20
2023-04-19T23:27:04.978Z,28.20
2023-04-19T23:29:31.711Z,28.30
2023-04-19T23:31:58.501Z,28.30
2023-04-19T23:34:25.366Z,28.60
2023-04-19T23:36:52.097Z,28.70
2023-04-19T23:39:19.134Z,28.90
2023-04-19T23:41:46.099Z,29.50
2023-04-19T23:44:12.785Z,29.20
2023-04-19T23:46:39.773Z,29.40
2023-04-19T23:49:08.320Z,29.60
2023-04-19T23:51:36.333Z,29.60
2023-04-19T23:54:03.127Z,29.70
2023-04-19T23:56:29.869Z,29.80
2023-04-19T23:58:57.497Z,30.00
